ADDS METAR Data INFO
IDs: Format: Raw Decoded Include TAF

Data at: 1927 UTC 19 Jul 2018

KVIH 191853Z AUTO 20006KT 10SM FEW090 BKN110 22/20 A2994 RMK AO2 PK WND 33026/1754 LTG DSNT SE-W RAE39 TSE23 SLP126 P0010 T02170200 $
KVIH 191840Z AUTO 00000KT 10SM BKN110 21/19 A2993 RMK AO2 PK WND 33026/1754 LTG DSNT SE-W RAE39 TSE23 P0010 T02110194 $
KVIH 191829Z AUTO 14008KT 10SM VCTS -RA FEW055 FEW100 BKN120 21/19 A2993 RMK AO2 PK WND 33026/1754 LTG DSNT ALQDS TSE23 PRESFR P0010 T02060189 $
KVIH 191810Z AUTO 17008KT 3SM -TSRA BR FEW016 BKN042 OVC110 20/19 A2997 RMK AO2 PK WND 33026/1754 LTG DSNT ALQDS P0009 T02000189 $
KVIH 191802Z AUTO VRB04G26KT 1 1/4SM +TSRA BR SCT019 BKN041 20/18 A2999 RMK AO2 PK WND 33026/1754 LTG DSNT ALQDS P0008 T02000183 $
KVIH 191753Z AUTO 33013G30KT 2 1/2SM +TSRA BR SCT015 BKN024 OVC065 21/19 A3000 RMK AO2 PK WND 33030/1746 LTG DSNT ALQDS RAB14 TSB28E44B47 SLP148 P0019 60019 T02110189 10283 20211 53020 $
KVIH 191748Z AUTO 33018G30KT 2SM TSRA BR BKN017 BKN032 OVC095 22/20 A3001 RMK AO2 PK WND 33030/1746 LTG DSNT SW-N RAB14 TSB28E44B47 PRESRR P0017 $
KVIH 191746Z AUTO 33024G30KT 1 1/4SM VCTS RA BR SCT017 BKN037 OVC095 23/21 A3001 RMK AO2 PK WND 33030/1746 LTG DSNT ALQDS RAB14 TSB28E44 PRESRR P0016 T02280211 $
KVIH 191736Z AUTO 00000KT 3/4SM +TSRA BR FEW021 BKN060 OVC110 24/22 A2998 RMK AO2 LTG DSNT ALQDS RAB14 TSB28 P0011 T02390217 $
KVIH 191733Z AUTO 28005KT 2 1/2SM TSRA BR FEW021 BKN070 OVC110 24/22 A2998 RMK AO2 LTG DSNT ALQDS RAB14 TSB28 P0004 T02390217 $
KVIH 191707Z AUTO 21003KT 10SM VCTS FEW080 BKN100 BKN120 25/21 A2996 RMK AO2 LTG DSNT W-NE T02500211 $
KVIH 191653Z AUTO 00000KT 10SM FEW075 26/21 A2996 RMK AO2 LTG DSNT N AND NW SLP131 T02560211 $
KVIH 191553Z AUTO 20007KT 10SM SCT022 26/21 A2993 RMK AO2 SLP124 T02610206 $
KVIH 191453Z AUTO 19010G18KT FEW110 27/21 A2994 RMK AO2 SLP125 T02720206 58008 PWINO $
KVIH 191353Z AUTO 18010KT 10SM BKN050 26/20 A2995 RMK AO2 SLP130 T02610200
KVIH 191253Z AUTO 16008KT 10SM BKN050 24/19 A2996 RMK AO2 SLP133 T02440189
KVIH 191153Z AUTO 15006KT 10SM OVC055 23/18 A2996 RMK AO2 SLP133 70001 T02280178 10233 20222 55000
KVIH 191053Z AUTO 14007KT 10SM OVC050 23/18 A2995 RMK AO2 SLP128 T02280178 $
KVIH 190953Z AUTO 13009KT 10SM FEW040 OVC055 23/18 A2995 RMK AO2 SLP127 T02280178 $
KVIH 190853Z AUTO 13008KT 10SM SCT041 OVC055 23/18 A2996 RMK AO2 SLP133 T02280183 56011 $
KVIH 190753Z AUTO 13005KT 10SM SCT042 BKN120 23/19 A2997 RMK AO2 SLP136 T02280189 $
KVIH 190653Z AUTO 13007KT 10SM BKN045 OVC120 23/19 A2998 RMK AO2 SLP140 T02330194 $
KVIH 190553Z AUTO 12006KT 10SM OVC045 23/19 A3000 RMK AO2 SLP146 T02330194 10278 20233 403000217 50003 $
KVIH 190453Z AUTO 12006KT 10SM BKN043 OVC095 23/19 A3000 RMK AO2 SLP147 T02330194 $
KVIH 190353Z AUTO 11006KT 10SM FEW100 23/19 A3000 RMK AO2 SLP145 T02330194 $
KVIH 190253Z AUTO 11007KT 10SM FEW100 24/19 A2999 RMK AO2 SLP142 T02390194 53003 $
KVIH 190153Z AUTO 11005KT 10SM FEW070 SCT090 25/19 A2998 RMK AO2 SLP138 T02500194 $
KVIH 190053Z AUTO 13006KT 10SM FEW065 SCT075 27/19 A2997 RMK AO2 SLP138 T02670194 $
KVIH 182353Z AUTO 11010KT 10SM OVC080 28/19 A2998 RMK AO2 SLP138 60000 T02780189 10300 20239 57007 $
KVIH 182253Z AUTO 13010KT 10SM FEW038 BKN080 BKN095 29/18 A2998 RMK AO2 SLP141 T02890183 $
KVIH 182153Z AUTO 10009KT 10SM FEW033 29/19 A2999 RMK AO2 SLP143 T02940189 $
KVIH 182053Z AUTO 12009G15KT 10SM CLR 29/19 A3000 RMK AO2 SLP146 60000 T02890194 58021 $
KVIH 181953Z AUTO 12007KT 10SM CLR 27/18 A3002 RMK AO2 SLP155 T02670183 $
KVIH 181853Z AUTO 14008KT 10SM FEW035 FEW120 26/19 A3005 RMK AO2 RAE1759 SLP164 P0000 T02560194 $
KVIH 181753Z AUTO 13007KT 10SM -RA FEW035 BKN065 OVC085 24/20 A3006 RMK AO2 RAB1655 SLP169 P0001 60001 T02390200 10261 20222 58002 $
KVIH 181653Z AUTO 12007KT 10SM SCT037 BKN090 BKN110 25/18 A3008 RMK AO2 SLP173 T02500183 $
KVIH 181553Z AUTO 13007KT 10SM FEW120 26/18 A3007 RMK AO2 SLP172 T02560178
KVIH 181453Z AUTO 12009KT 10SM SCT060 25/18 A3007 RMK AO2 SLP171 T02500178 51003
KVIH 181353Z AUTO 12012KT 10SM FEW120 25/17 A3007 RMK AO2 LTG DSNT W SLP169 T02500172
KVIH 181253Z AUTO 11009KT 10SM CLR 24/18 A3006 RMK AO2 SLP167 T02390178
KVIH 181153Z AUTO 10008KT 10SM FEW120 22/18 A3006 RMK AO2 SLP166 T02170178 10233 20217 55000 $
KVIH 181053Z AUTO 11009KT 10SM FEW120 22/18 A3006 RMK AO2 SLP164 T02170183 $
KVIH 180953Z AUTO 11008KT 10SM FEW043 FEW120 22/18 A3006 RMK AO2 SLP164 T02170183 $
KVIH 180853Z AUTO 10007KT 10SM CLR 22/18 A3006 RMK AO2 SLP165 T02220183 58002 $
KVIH 180753Z AUTO 11009KT 10SM SCT044 23/18 A3006 RMK AO2 SLP165 T02280183 $